createdAt,value
2022-08-14T00:01:11.475Z,100173.00
2022-08-14T00:03:41.386Z,100149.53
2022-08-14T00:06:14.137Z,100146.19
2022-08-14T00:08:59.188Z,100143.69
2022-08-14T00:11:31.195Z,100151.81
2022-08-14T00:14:02.222Z,100161.25
2022-08-14T00:16:41.120Z,100145.78
2022-08-14T00:19:19.139Z,100158.53
2022-08-14T00:21:51.206Z,100165.88
2022-08-14T00:24:23.247Z,100157.09
2022-08-14T00:27:02.009Z,100153.69
2022-08-14T00:29:39.857Z,100167.56
2022-08-14T00:32:53.058Z,100167.09
2022-08-14T00:35:01.438Z,100093.81
2022-08-14T00:37:32.646Z,100169.22
2022-08-14T00:40:02.580Z,100163.63
2022-08-14T00:42:55.057Z,100157.94
2022-08-14T00:45:25.036Z,100162.13
2022-08-14T00:47:53.808Z,100166.47
2022-08-14T00:50:23.883Z,100134.69
2022-08-14T00:52:56.305Z,100153.28
2022-08-14T00:55:27.912Z,100156.63
2022-08-14T00:58:17.712Z,100123.34
2022-08-14T01:00:50.914Z,100157.47
2022-08-14T01:03:20.944Z,100151.78
2022-08-14T01:05:52.698Z,100145.28
2022-08-14T01:08:57.640Z,100146.56
2022-08-14T01:11:19.223Z,100144.47
2022-08-14T01:13:55.902Z,100139.84
2022-08-14T01:16:31.634Z,100148.22
2022-08-14T01:19:20.035Z,100141.94
2022-08-14T01:21:53.582Z,100093.34
2022-08-14T01:24:30.465Z,100147.81
2022-08-14T01:27:04.921Z,100139.88
2022-08-14T01:29:59.410Z,100153.28
2022-08-14T01:32:26.731Z,100148.47
2022-08-14T01:35:18.334Z,100149.91
2022-08-14T01:37:56.644Z,100150.97
2022-08-14T01:40:36.619Z,100150.78
2022-08-14T01:43:15.916Z,100149.50
2022-08-14T01:45:57.963Z,100152.25
2022-08-14T01:48:37.618Z,100146.38
2022-08-14T01:51:18.339Z,100124.38
2022-08-14T01:53:55.593Z,100136.13
2022-08-14T01:56:37.248Z,100141.59
2022-08-14T01:59:09.881Z,100064.06
2022-08-14T02:01:41.853Z,100151.56
2022-08-14T02:04:56.058Z,100137.16
2022-08-14T02:07:15.728Z,100152.88
2022-08-14T02:09:55.810Z,100149.53
2022-08-14T02:12:26.615Z,100154.97
2022-08-14T02:15:00.751Z,100146.38
2022-08-14T02:17:31.175Z,100144.47
2022-08-14T02:20:00.597Z,100048.56
2022-08-14T02:22:33.271Z,100150.34
2022-08-14T02:25:04.257Z,100154.50
2022-08-14T02:28:25.236Z,100155.34
2022-08-14T02:30:22.348Z,100127.88
2022-08-14T02:32:51.402Z,100149.69
2022-08-14T02:35:22.007Z,100157.81
2022-08-14T02:37:55.275Z,100151.78
2022-08-14T02:40:32.486Z,100147.75
2022-08-14T02:43:03.793Z,100148.19
2022-08-14T02:45:38.381Z,100146.44
2022-08-14T02:49:04.191Z,100146.06
2022-08-14T02:51:09.000Z,100158.09
2022-08-14T02:53:42.402Z,100152.66
2022-08-14T02:56:29.663Z,100152.66
2022-08-14T02:59:06.488Z,100149.38
2022-08-14T03:01:43.888Z,100152.09
2022-08-14T03:04:20.844Z,100141.78
2022-08-14T03:07:06.094Z,100150.50
2022-08-14T03:10:25.189Z,100152.75
2022-08-14T03:12:31.889Z,100150.50
2022-08-14T03:15:13.863Z,100156.13
2022-08-14T03:17:57.008Z,100151.78
2022-08-14T03:20:29.180Z,100148.84
2022-08-14T03:23:02.940Z,100137.28
2022-08-14T03:25:33.426Z,100131.25
2022-08-14T03:28:14.880Z,100151.34
2022-08-14T03:30:59.889Z,100155.97
2022-08-14T03:33:37.375Z,100138.56
2022-08-14T03:37:51.953Z,100141.34
2022-08-14T03:39:13.788Z,100156.25
2022-08-14T03:41:51.574Z,100151.63
2022-08-14T03:45:19.936Z,100159.63
2022-08-14T03:47:15.215Z,100149.56
2022-08-14T03:49:50.064Z,100148.75
2022-08-14T03:52:40.542Z,100146.63
2022-08-14T03:55:12.080Z,100129.25
2022-08-14T03:57:41.610Z,100149.16
2022-08-14T04:00:44.374Z,100147.91
2022-08-14T04:03:06.413Z,100136.19
2022-08-14T04:05:43.475Z,100161.72
2022-08-14T04:08:29.258Z,100156.69
2022-08-14T04:11:07.973Z,100148.69
2022-08-14T04:13:42.517Z,100141.16
2022-08-14T04:16:15.585Z,100153.31
2022-08-14T04:18:46.336Z,100152.84
2022-08-14T04:21:17.126Z,100131.50
2022-08-14T04:23:57.512Z,100140.28
2022-08-14T04:26:42.162Z,100140.28
2022-08-14T04:29:14.846Z,100108.47
2022-08-14T04:32:57.722Z,100137.16
2022-08-14T04:34:40.063Z,100138.19
2022-08-14T04:37:28.047Z,100135.47
2022-08-14T04:40:15.824Z,100140.31
2022-08-14T04:43:02.396Z,100132.78
2022-08-14T04:45:40.733Z,100145.34
2022-08-14T04:48:39.243Z,100147.44
2022-08-14T04:51:04.376Z,100145.78
2022-08-14T04:53:35.856Z,100149.97
2022-08-14T04:56:30.006Z,100146.63
2022-08-14T04:58:57.700Z,100141.22
2022-08-14T05:01:27.426Z,100142.88
2022-08-14T05:04:00.723Z,100140.78
2022-08-14T05:06:37.988Z,100070.00
2022-08-14T05:09:11.637Z,100143.94
2022-08-14T05:11:44.324Z,100140.56
2022-08-14T05:14:34.612Z,100149.56
2022-08-14T05:17:02.601Z,100140.78
2022-08-14T05:19:33.059Z,100084.25
2022-08-14T05:22:17.421Z,100145.94
2022-08-14T05:24:50.333Z,100079.59
2022-08-14T05:27:24.137Z,100138.16
2022-08-14T05:29:55.406Z,100135.59
2022-08-14T05:32:27.140Z,100139.19
2022-08-14T05:35:00.568Z,100122.69
2022-08-14T05:37:30.986Z,100136.72
2022-08-14T05:40:02.656Z,100139.16
2022-08-14T05:42:34.255Z,100143.97
2022-08-14T05:45:07.335Z,100137.28
2022-08-14T05:47:41.437Z,100137.59
2022-08-14T05:50:18.749Z,100129.69
2022-08-14T05:52:50.522Z,100130.50
2022-08-14T05:55:22.854Z,100138.50
2022-08-14T05:57:54.820Z,100120.94
2022-08-14T06:00:34.810Z,100116.41
2022-08-14T06:03:09.192Z,100103.22
2022-08-14T06:05:39.586Z,100132.19
2022-08-14T06:08:30.973Z,100135.09
2022-08-14T06:11:10.235Z,100129.44
2022-08-14T06:13:45.984Z,100133.56
2022-08-14T06:16:18.797Z,100125.63
2022-08-14T06:18:52.494Z,100111.53
2022-08-14T06:21:24.411Z,100121.59
2022-08-14T06:23:54.801Z,100139.97
2022-08-14T06:26:30.580Z,100131.16
2022-08-14T06:29:00.028Z,100125.72
2022-08-14T06:31:28.814Z,100128.16
2022-08-14T06:35:11.553Z,100122.22
2022-08-14T06:36:50.377Z,100134.09
2022-08-14T06:39:36.487Z,100133.00
2022-08-14T06:42:18.336Z,100130.31
2022-08-14T06:45:02.806Z,100126.91
2022-08-14T06:47:34.753Z,100128.69
2022-08-14T06:50:04.686Z,100133.44
2022-08-14T06:52:35.528Z,100131.44
2022-08-14T06:55:04.781Z,100132.66
2022-08-14T06:57:40.314Z,100116.28
2022-08-14T07:00:22.525Z,100120.16
2022-08-14T07:03:13.506Z,100124.13
2022-08-14T07:05:55.052Z,100129.31
2022-08-14T07:08:29.649Z,100131.81
2022-08-14T07:11:06.802Z,100123.69
2022-08-14T07:13:38.971Z,100097.09
2022-08-14T07:16:09.938Z,100126.03
2022-08-14T07:18:41.702Z,100125.16
2022-08-14T07:21:13.054Z,100138.16
2022-08-14T07:23:44.641Z,100100.75
2022-08-14T07:26:14.382Z,100121.63
2022-08-14T07:28:44.141Z,100113.97
2022-08-14T07:31:13.880Z,100129.50
2022-08-14T07:33:50.397Z,100129.84
2022-08-14T07:36:27.597Z,100126.25
2022-08-14T07:39:03.235Z,100128.13
2022-08-14T07:41:35.954Z,100131.38
2022-08-14T07:44:22.574Z,100131.34
2022-08-14T07:46:54.696Z,100134.88
2022-08-14T07:49:25.685Z,100128.91
2022-08-14T07:51:54.354Z,100128.69
2022-08-14T07:54:30.427Z,100132.06
2022-08-14T07:57:11.768Z,100100.31
2022-08-14T07:59:44.666Z,100131.34
2022-08-14T08:02:20.383Z,100123.09
2022-08-14T08:04:59.291Z,100104.91
2022-08-14T08:07:31.369Z,100118.13
2022-08-14T08:10:46.279Z,100119.91
2022-08-14T08:13:22.302Z,100117.72
2022-08-14T08:15:57.342Z,100101.28
2022-08-14T08:18:27.495Z,100111.56
2022-08-14T08:21:00.258Z,100116.38
2022-08-14T08:23:40.608Z,100108.00
2022-08-14T08:26:14.370Z,100102.28
2022-08-14T08:28:44.101Z,100102.19
2022-08-14T08:31:13.787Z,100104.38
2022-08-14T08:33:44.968Z,100108.25
2022-08-14T08:36:19.149Z,100122.16
2022-08-14T08:39:18.488Z,100116.00
2022-08-14T08:41:49.439Z,100117.09
2022-08-14T08:44:32.927Z,100056.53
2022-08-14T08:47:06.578Z,100117.06
2022-08-14T08:49:52.964Z,100117.34
2022-08-14T08:52:32.140Z,100098.38
2022-08-14T08:55:05.598Z,100070.28
2022-08-14T08:57:38.574Z,100115.16
2022-08-14T09:00:24.480Z,100099.09
2022-08-14T09:02:57.880Z,100085.09
2022-08-14T09:05:27.577Z,100106.28
2022-08-14T09:08:09.582Z,100099.69
2022-08-14T09:10:59.836Z,100101.44
2022-08-14T09:13:33.159Z,100093.91
2022-08-14T09:16:06.676Z,100089.00
2022-08-14T09:18:53.235Z,100082.81
2022-08-14T09:21:24.945Z,100085.75
2022-08-14T09:24:28.923Z,100079.38
2022-08-14T09:26:53.278Z,100078.03
2022-08-14T09:29:23.762Z,100075.28
2022-08-14T09:31:57.599Z,100068.13
2022-08-14T09:34:58.472Z,100068.28
2022-08-14T09:37:36.505Z,100050.16
2022-08-14T09:40:20.614Z,100058.22
2022-08-14T09:43:22.453Z,100001.13
2022-08-14T09:45:58.639Z,100072.31
2022-08-14T09:48:43.170Z,100054.66
2022-08-14T09:51:32.971Z,100066.13
2022-08-14T09:54:22.549Z,100067.66
2022-08-14T09:56:59.426Z,100062.47
2022-08-14T09:59:33.514Z,100070.97
2022-08-14T10:02:18.302Z,100045.94
2022-08-14T10:04:50.016Z,100069.31
2022-08-14T10:07:19.298Z,100042.44
2022-08-14T10:09:59.455Z,100065.78
2022-08-14T10:12:50.222Z,100065.72
2022-08-14T10:15:25.368Z,100069.91
2022-08-14T10:18:17.350Z,100069.06
2022-08-14T10:20:55.386Z,100061.38
2022-08-14T10:23:27.541Z,100080.97
2022-08-14T10:26:09.105Z,100067.97
2022-08-14T10:29:17.911Z,100087.38
2022-08-14T10:31:44.549Z,100079.56
2022-08-14T10:34:29.223Z,100079.59
2022-08-14T10:37:14.155Z,100077.41
2022-08-14T10:40:01.277Z,100076.16
2022-08-14T10:42:39.643Z,100069.09
2022-08-14T10:45:21.624Z,100074.91
2022-08-14T10:48:07.834Z,100070.47
2022-08-14T10:50:46.568Z,100074.94
2022-08-14T10:53:16.042Z,100070.25
2022-08-14T10:55:45.981Z,100079.91
2022-08-14T10:58:17.049Z,100080.91
2022-08-14T11:00:57.793Z,100077.63
2022-08-14T11:03:36.090Z,100078.97
2022-08-14T11:06:20.879Z,100078.66
2022-08-14T11:08:52.132Z,100072.31
2022-08-14T11:11:28.532Z,100080.03
2022-08-14T11:14:09.522Z,100065.50
2022-08-14T11:16:53.299Z,100069.03
2022-08-14T11:19:25.243Z,100076.63
2022-08-14T11:21:56.213Z,100054.63
2022-08-14T11:24:50.500Z,100068.59
2022-08-14T11:27:25.741Z,100074.38
2022-08-14T11:30:50.526Z,100050.66
2022-08-14T11:32:56.349Z,100058.47
2022-08-14T11:35:44.031Z,100058.38
2022-08-14T11:38:21.835Z,100018.94
2022-08-14T11:40:52.422Z,100071.31
2022-08-14T11:43:22.665Z,100067.66
2022-08-14T11:45:59.595Z,100066.28
2022-08-14T11:49:02.687Z,100032.03
2022-08-14T11:51:42.890Z,100057.19
2022-08-14T11:54:34.475Z,100063.09
2022-08-14T11:57:10.007Z,100068.53
2022-08-14T11:59:44.154Z,100072.34
2022-08-14T12:03:00.492Z,100079.44
2022-08-14T12:05:04.535Z,100076.50
2022-08-14T12:07:49.751Z,100063.63
2022-08-14T12:10:26.441Z,100064.88
2022-08-14T12:12:56.781Z,100074.69
2022-08-14T12:15:34.327Z,100087.88
2022-08-14T12:18:06.129Z,100072.81
2022-08-14T12:20:45.816Z,100081.94
2022-08-14T12:23:24.817Z,100080.75
2022-08-14T12:26:39.495Z,100024.78
2022-08-14T12:29:08.599Z,100096.06
2022-08-14T12:31:44.868Z,100088.75
2022-08-14T12:34:20.560Z,100075.44
2022-08-14T12:36:51.798Z,100085.47
2022-08-14T12:39:23.918Z,100064.16
2022-08-14T12:42:06.342Z,100074.94
2022-08-14T12:44:37.393Z,100073.66
2022-08-14T12:47:09.735Z,100077.66
2022-08-14T12:49:54.072Z,100065.66
2022-08-14T12:52:43.187Z,100069.44
2022-08-14T12:55:22.078Z,100053.59
2022-08-14T12:57:53.760Z,100063.50
2022-08-14T13:00:25.545Z,100054.16
2022-08-14T13:02:57.036Z,100061.56
2022-08-14T13:05:29.320Z,100053.63
2022-08-14T13:07:59.335Z,100050.88
2022-08-14T13:10:47.785Z,100061.63
2022-08-14T13:13:20.567Z,100051.69
2022-08-14T13:15:57.508Z,100044.56
2022-08-14T13:18:28.189Z,100050.09
2022-08-14T13:21:01.814Z,100029.31
2022-08-14T13:23:36.506Z,100040.66
2022-08-14T13:26:08.218Z,100042.19
2022-08-14T13:29:02.865Z,100040.72
2022-08-14T13:31:34.504Z,100025.09
2022-08-14T13:34:04.755Z,100025.38
2022-08-14T13:36:54.366Z,100028.50
2022-08-14T13:39:25.909Z,100013.53
2022-08-14T13:41:55.633Z,100040.47
2022-08-14T13:44:28.809Z,100037.03
2022-08-14T13:46:58.627Z,100025.09
2022-08-14T13:49:29.244Z,100033.56
2022-08-14T13:52:00.002Z,100030.09
2022-08-14T13:54:32.844Z,100021.72
2022-08-14T13:57:03.957Z,100019.72
2022-08-14T13:59:37.724Z,100026.75
2022-08-14T14:02:09.315Z,100000.44
2022-08-14T14:04:42.150Z,100022.84
2022-08-14T14:07:13.180Z,100014.00
2022-08-14T14:09:52.791Z,100000.91
2022-08-14T14:12:38.571Z,100015.69
2022-08-14T14:15:15.017Z,100001.19
2022-08-14T14:17:48.014Z,100000.44
2022-08-14T14:20:35.472Z,99984.44
2022-08-14T14:23:12.015Z,99995.75
2022-08-14T14:25:51.175Z,99923.38
2022-08-14T14:28:32.453Z,100009.38
2022-08-14T14:31:06.834Z,100006.66
2022-08-14T14:33:47.607Z,100016.44
2022-08-14T14:36:21.861Z,99977.44
2022-08-14T14:38:54.699Z,100016.56
2022-08-14T14:41:26.140Z,100013.72
2022-08-14T14:43:57.757Z,100020.28
2022-08-14T14:46:36.902Z,100011.66
2022-08-14T14:49:11.370Z,100019.19
2022-08-14T14:51:46.846Z,100022.53
2022-08-14T14:54:32.061Z,100018.28
2022-08-14T14:57:09.387Z,100006.41
2022-08-14T14:59:38.693Z,99992.72
2022-08-14T15:02:09.749Z,99997.88
2022-08-14T15:04:43.507Z,100007.25
2022-08-14T15:07:13.074Z,99994.78
2022-08-14T15:09:45.434Z,100001.25
2022-08-14T15:12:56.375Z,99994.88
2022-08-14T15:15:08.406Z,99985.88
2022-08-14T15:17:43.327Z,99962.91
2022-08-14T15:20:17.397Z,100001.16
2022-08-14T15:22:51.828Z,100004.41
2022-08-14T15:25:21.000Z,99998.28
2022-08-14T15:27:54.710Z,99989.09
2022-08-14T15:30:32.055Z,100001.50
2022-08-14T15:33:03.027Z,99971.19
2022-08-14T15:35:34.265Z,99941.53
2022-08-14T15:38:08.031Z,99983.84
2022-08-14T15:40:41.097Z,99927.16
2022-08-14T15:43:12.984Z,100002.31
2022-08-14T15:45:42.735Z,99993.25
2022-08-14T15:48:22.254Z,99992.44
2022-08-14T15:50:52.011Z,99999.81
2022-08-14T15:53:22.554Z,99998.97
2022-08-14T15:55:52.950Z,99975.66
2022-08-14T15:58:22.786Z,100012.78
2022-08-14T16:01:11.095Z,100006.59
2022-08-14T16:03:42.474Z,100010.03
2022-08-14T16:06:17.899Z,100013.72
2022-08-14T16:08:50.158Z,100012.06
2022-08-14T16:11:25.427Z,100019.25
2022-08-14T16:13:57.565Z,100018.19
2022-08-14T16:16:49.435Z,100024.22
2022-08-14T16:19:21.302Z,100022.09
2022-08-14T16:22:02.561Z,100021.34
2022-08-14T16:25:02.286Z,100022.09
2022-08-14T16:27:40.927Z,100026.94
2022-08-14T16:30:20.611Z,100019.72
2022-08-14T16:32:56.736Z,100005.75
2022-08-14T16:35:42.847Z,99956.13
2022-08-14T16:38:45.619Z,100009.06
2022-08-14T16:41:23.459Z,100019.34
2022-08-14T16:43:58.888Z,100021.72
2022-08-14T16:46:32.827Z,99995.00
2022-08-14T16:49:03.162Z,100007.59
2022-08-14T16:51:36.229Z,100026.41
2022-08-14T16:54:20.845Z,100031.25
2022-08-14T16:56:56.519Z,99961.97
2022-08-14T16:59:30.630Z,100030.91
2022-08-14T17:02:18.808Z,100027.41
2022-08-14T17:04:49.259Z,100021.13
2022-08-14T17:07:20.193Z,100024.63
2022-08-14T17:09:50.416Z,100018.84
2022-08-14T17:12:33.738Z,100028.28
2022-08-14T17:15:10.140Z,100030.25
2022-08-14T17:17:57.475Z,100028.66
2022-08-14T17:20:54.767Z,100030.22
2022-08-14T17:23:18.152Z,100029.16
2022-08-14T17:25:51.039Z,100029.13
2022-08-14T17:28:50.026Z,100031.06
2022-08-14T17:31:10.351Z,100024.44
2022-08-14T17:33:44.725Z,100032.06
2022-08-14T17:36:24.305Z,100020.00
2022-08-14T17:39:06.424Z,100025.03
2022-08-14T17:41:43.761Z,100028.06
2022-08-14T17:44:34.496Z,100041.81
2022-08-14T17:47:17.824Z,100040.34
2022-08-14T17:49:52.286Z,100040.66
2022-08-14T17:52:34.256Z,100044.28
2022-08-14T17:55:06.829Z,100048.69
2022-08-14T17:57:41.244Z,100046.84
2022-08-14T18:00:14.794Z,100044.28
2022-08-14T18:02:50.685Z,100048.59
2022-08-14T18:05:23.497Z,100040.41
2022-08-14T18:08:32.152Z,100045.25
2022-08-14T18:11:03.327Z,100036.84
2022-08-14T18:13:50.245Z,100049.91
2022-08-14T18:16:43.992Z,100048.91
2022-08-14T18:19:24.901Z,100047.66
2022-08-14T18:22:31.398Z,100048.09
2022-08-14T18:25:04.808Z,100044.47
2022-08-14T18:27:51.879Z,100047.59
2022-08-14T18:30:58.305Z,100030.06
2022-08-14T18:33:33.261Z,100035.13
2022-08-14T18:36:48.182Z,100058.59
2022-08-14T18:39:23.078Z,100034.63
2022-08-14T18:41:54.308Z,100011.41
2022-08-14T18:45:12.701Z,100041.91
2022-08-14T18:50:52.280Z,100033.44
2022-08-14T18:53:24.992Z,100045.16
2022-08-14T18:55:59.930Z,100043.53
2022-08-14T18:58:46.988Z,100022.56
2022-08-14T19:01:27.987Z,100030.31
2022-08-14T19:04:04.051Z,100045.31
2022-08-14T19:06:55.801Z,99953.56
2022-08-14T19:09:56.359Z,100043.47
2022-08-14T19:13:12.123Z,100044.94
2022-08-14T19:15:44.050Z,100029.69
2022-08-14T19:18:28.062Z,100030.09
2022-08-14T19:21:01.292Z,100030.47
2022-08-14T19:23:42.747Z,100025.91
2022-08-14T19:26:34.662Z,100033.28
2022-08-14T19:29:32.888Z,99915.03
2022-08-14T19:32:22.712Z,100026.56
2022-08-14T19:34:52.759Z,100029.31
2022-08-14T19:37:47.955Z,100032.69
2022-08-14T19:40:33.263Z,100026.88
2022-08-14T19:43:09.583Z,100025.22
2022-08-14T19:45:39.727Z,100032.34
2022-08-14T19:48:15.956Z,100036.97
2022-08-14T19:50:47.109Z,100044.25
2022-08-14T19:53:18.807Z,100040.94
2022-08-14T19:56:04.905Z,100023.97
2022-08-14T19:58:55.102Z,100024.59
2022-08-14T20:01:36.503Z,100033.78
2022-08-14T20:04:45.694Z,100032.34
2022-08-14T20:07:02.041Z,100039.47
2022-08-14T20:11:04.858Z,100038.63
2022-08-14T20:12:35.482Z,100046.16
2022-08-14T20:15:47.336Z,100049.09
2022-08-14T20:18:49.383Z,100052.84
2022-08-14T20:21:14.996Z,100045.75
2022-08-14T20:23:43.900Z,100041.56
2022-08-14T20:26:30.494Z,100051.00
2022-08-14T20:29:04.689Z,100053.25
2022-08-14T20:31:37.172Z,100054.31
2022-08-14T20:34:19.001Z,100055.13
2022-08-14T20:37:11.964Z,100020.84
2022-08-14T20:39:45.974Z,100057.66
2022-08-14T20:42:43.485Z,100054.94
2022-08-14T20:45:21.653Z,100053.28
2022-08-14T20:48:01.103Z,100054.53
2022-08-14T20:50:32.010Z,100057.03
2022-08-14T20:53:02.457Z,100049.50
2022-08-14T20:55:41.389Z,100041.34
2022-08-14T21:01:33.809Z,100054.09
2022-08-14T21:04:21.953Z,99992.59
2022-08-14T21:07:25.599Z,100061.22
2022-08-14T21:10:06.359Z,100055.78
2022-08-14T21:12:35.991Z,100058.09
2022-08-14T21:15:11.207Z,100052.84
2022-08-14T21:17:47.205Z,100048.66
2022-08-14T21:20:26.304Z,100052.44
2022-08-14T21:23:00.436Z,100037.81
2022-08-14T21:25:31.897Z,100044.91
2022-08-14T21:28:04.768Z,100058.09
2022-08-14T21:30:46.805Z,100039.88
2022-08-14T21:33:23.440Z,100044.25
2022-08-14T21:35:54.945Z,100053.91
2022-08-14T21:38:33.729Z,100051.59
2022-08-14T21:41:42.325Z,100049.94
2022-08-14T21:44:18.346Z,100037.34
2022-08-14T21:46:53.504Z,100052.84
2022-08-14T21:49:38.999Z,100052.63
2022-08-14T21:52:51.932Z,100040.31
2022-08-14T21:55:09.559Z,100045.97
2022-08-14T21:57:56.116Z,100042.81
2022-08-14T22:00:35.415Z,100046.34
2022-08-14T22:03:09.244Z,100021.88
2022-08-14T22:05:42.568Z,100049.50
2022-08-14T22:08:14.098Z,100052.00
2022-08-14T22:10:44.995Z,100035.91
2022-08-14T22:13:17.223Z,100051.19
2022-08-14T22:15:50.003Z,100029.63
2022-08-14T22:18:21.172Z,100047.22
2022-08-14T22:20:56.414Z,100051.59
2022-08-14T22:23:26.400Z,100040.72
2022-08-14T22:25:56.498Z,100044.88
2022-08-14T22:28:32.644Z,100027.34
2022-08-14T22:31:04.011Z,100046.97
2022-08-14T22:33:43.002Z,100031.91
2022-08-14T22:36:42.317Z,100040.06
2022-08-14T22:39:14.521Z,100033.19
2022-08-14T22:41:56.026Z,100041.94
2022-08-14T22:44:29.177Z,99977.06
2022-08-14T22:46:58.948Z,100027.31
2022-08-14T22:50:30.013Z,100031.91
2022-08-14T22:52:32.527Z,100010.31
2022-08-14T22:55:05.921Z,100031.72
2022-08-14T22:57:37.777Z,100029.81
2022-08-14T23:00:15.289Z,100035.84
2022-08-14T23:02:46.805Z,100040.84
2022-08-14T23:05:16.158Z,100022.47
2022-08-14T23:08:58.607Z,100012.19
2022-08-14T23:10:35.569Z,100028.13
2022-08-14T23:13:07.503Z,99996.72
2022-08-14T23:15:37.505Z,100018.47
2022-08-14T23:18:07.495Z,100035.00
2022-08-14T23:20:44.322Z,100032.75
2022-08-14T23:23:22.319Z,100033.78
2022-08-14T23:26:00.166Z,100037.28
2022-08-14T23:28:33.519Z,99957.56
2022-08-14T23:31:35.306Z,100029.78
2022-08-14T23:34:07.504Z,100031.44
2022-08-14T23:36:54.030Z,100031.22
2022-08-14T23:39:30.203Z,100024.72
2022-08-14T23:42:02.599Z,100029.28
2022-08-14T23:44:37.784Z,100002.97
2022-08-14T23:47:11.656Z,99962.75
2022-08-14T23:50:03.561Z,100019.09
2022-08-14T23:52:50.648Z,99994.19
2022-08-14T23:55:32.121Z,100022.84
2022-08-14T23:58:01.390Z,100023.84
